Rockfield, Wisconsin
Current Conditions -  °F | °C
As of 6:45 AM on Sunday 23 Nov 2014 (Local Time) from KMWC Reporting Station
Drizzle Drizzle  
Wind Chill: 44°   Ceiling: 600
Heat Index: 48°   Visibility: 4mi
Dew Point: 46°   Wind: 9mph
Humidity: 93%   Direction: 200°SSW
Pressure: 29.69"   Gusts: 17mph
Location:  43.2326°N, 88.1158°W
Report Text: KMWC 231245Z AUTO 20008G15KT 4SM -DZ BR OVC006 09/08 A2969
Loading
Personal Weather Stations






























Interactive Weather Map New forecast layout! Learn more

10-Day Weather Forecast

Advertisements
Track Severe Weather on mobile